Aviation Digital Data Service (ADDS)

Output produced by METARs form (0135 UTC 22 October 2014)
found at http://aviationweather.gov/adds/metars/
 
METAR text: KBFM 220053Z 32004KT 10SM CLR 17/14 A3001 RMK AO2 SLP161 T01670139
Conditions at: KBFM (MOBILE/BROOKLEY , AL, US) observed 0053 UTC 22 October 2014
Temperature: 16.7°C (62°F)
Dewpoint: 13.9°C (57°F) [RH = 84%]
Pressure (altimeter): 30.01 inches Hg (1016.3 mb)
[Sea-level pressure: 1016.1 mb]
Winds: from the NW (320 degrees) at 5 MPH (4 knots; 2.1 m/s)
Visibility: 10 or more miles (16+ km)
Ceiling: at least 12,000 feet AGL
Clouds: sky clear below 12,000 feet AGL
Weather: no significant weather observed at this time